Time;durP1;ratioP1;P1;durP2;ratioP2;P2;SDS_P1;SDS_P2;PMS_P1;PMS_P2;Temp;Humidity;BMP_temperature;BMP_pressure;BME280_temperature;BME280_humidity;BME280_pressure;Samples;Min_cycle;Max_cycle;Signal;HPM_P1;HPM_P2
2023/06/24 00:02:02;;;;;;;7.03;5.70;;;15.30;99.90;;;;;;5032660;28;20618;-89
2023/06/24 00:04:27;;;;;;;9.20;6.35;;;15.20;99.90;;;;;;5032560;28;20188;-87
2023/06/24 00:06:56;;;;;;;10.75;6.35;;;15.20;99.90;;;;;;5032690;28;20257;-89
2023/06/24 00:09:22;;;;;;;6.65;5.63;;;15.20;99.90;;;;;;5031239;28;20215;-89
2023/06/24 00:11:47;;;;;;;10.38;6.72;;;15.10;99.90;;;;;;5033384;28;20170;-87
2023/06/24 00:14:15;;;;;;;9.45;6.43;;;15.10;99.90;;;;;;5031200;28;20552;-87
2023/06/24 00:16:41;;;;;;;9.30;6.25;;;15.00;99.90;;;;;;5033765;28;20158;-86
2023/06/24 00:19:08;;;;;;;8.38;6.47;;;14.90;99.90;;;;;;5031229;28;20175;-85
2023/06/24 00:21:34;;;;;;;9.55;6.28;;;15.00;99.90;;;;;;5031725;28;20195;-86
2023/06/24 00:24:04;;;;;;;11.68;6.28;;;14.90;99.90;;;;;;5032375;28;20265;-86
2023/06/24 00:26:31;;;;;;;10.07;6.57;;;14.90;99.90;;;;;;5032235;28;20174;-87
2023/06/24 00:28:58;;;;;;;7.47;5.90;;;14.90;99.90;;;;;;5031954;28;20218;-86
2023/06/24 00:31:24;;;;;;;8.55;5.93;;;14.90;99.90;;;;;;5032516;28;20213;-84
2023/06/24 00:33:52;;;;;;;7.78;6.38;;;14.90;99.90;;;;;;5033161;28;20620;-84
2023/06/24 00:36:17;;;;;;;10.57;7.10;;;14.90;99.90;;;;;;5031639;28;20195;-85
2023/06/24 00:38:43;;;;;;;9.07;6.20;;;14.90;99.90;;;;;;5031903;28;20248;-85
2023/06/24 00:41:09;;;;;;;8.82;6.53;;;14.90;99.90;;;;;;5031440;28;20421;-85
2023/06/24 00:43:35;;;;;;;7.57;6.75;;;14.90;99.90;;;;;;5032073;28;20214;-84
2023/06/24 00:46:02;;;;;;;8.18;6.53;;;14.90;99.90;;;;;;5033085;28;20217;-84
2023/06/24 00:48:28;;;;;;;6.97;6.28;;;14.80;99.90;;;;;;5033128;28;20261;-85
2023/06/24 00:50:54;;;;;;;10.55;6.70;;;14.80;99.90;;;;;;5031449;28;20292;-84
2023/06/24 00:53:21;;;;;;;7.22;6.40;;;14.80;99.90;;;;;;5030614;28;20192;-86
2023/06/24 00:55:47;;;;;;;9.15;6.72;;;14.80;99.90;;;;;;5031711;28;20191;-84
2023/06/24 00:58:16;;;;;;;10.65;6.82;;;14.90;99.90;;;;;;5033140;28;20178;-86
2023/06/24 01:00:45;;;;;;;7.78;6.97;;;14.80;99.90;;;;;;5030658;28;20203;-85
2023/06/24 01:03:16;;;;;;;11.00;6.50;;;14.80;99.90;;;;;;5031555;28;20229;-86
2023/06/24 01:05:43;;;;;;;9.10;7.10;;;14.80;99.90;;;;;;5034677;28;20529;-84
2023/06/24 01:08:09;;;;;;;8.60;7.05;;;14.80;99.90;;;;;;5033540;28;20216;-83
2023/06/24 01:10:35;;;;;;;8.75;6.88;;;14.70;99.90;;;;;;5034787;28;20214;-84
2023/06/24 01:13:01;;;;;;;9.50;6.78;;;14.70;99.90;;;;;;5036012;28;20660;-85
2023/06/24 01:15:28;;;;;;;10.13;7.10;;;14.70;99.90;;;;;;5035144;28;20205;-85
2023/06/24 01:18:19;;;;;;;8.07;6.32;;;14.70;99.90;;;;;;5034865;28;20193;-84
2023/06/24 01:21:01;;;;;;;12.13;7.10;;;14.70;99.90;;;;;;5015402;28;20249;-84
2023/06/24 01:23:42;;;;;;;11.30;7.28;;;14.70;99.90;;;;;;5015195;28;20532;-84
2023/06/24 01:26:58;;;;;;;7.78;6.97;;;14.60;99.90;;;;;;5015465;28;20529;-84
2023/06/24 01:29:46;;;;;;;12.45;7.28;;;14.60;99.90;;;;;;5014932;28;20199;-85
2023/06/24 01:32:38;;;;;;;9.25;7.20;;;14.70;99.90;;;;;;5028169;28;20273;-84
2023/06/24 01:35:20;;;;;;;8.38;6.93;;;14.60;99.90;;;;;;5034918;28;20210;-85
2023/06/24 01:37:51;;;;;;;9.20;6.88;;;14.60;99.90;;;;;;5034542;28;20497;-84
2023/06/24 01:40:34;;;;;;;9.15;7.25;;;14.60;99.90;;;;;;5035249;28;20189;-84
2023/06/24 01:43:03;;;;;;;9.88;7.28;;;14.50;99.90;;;;;;5034703;28;20542;-84
2023/06/24 01:45:36;;;;;;;9.25;7.13;;;14.50;99.90;;;;;;5033115;28;20190;-85
2023/06/24 01:48:15;;;;;;;9.30;7.03;;;14.50;99.90;;;;;;5034837;28;20510;-84
2023/06/24 01:51:01;;;;;;;12.13;7.65;;;14.50;99.90;;;;;;5459662;22;20198;-94
2023/06/24 01:53:34;;;;;;;9.27;7.28;;;14.40;99.90;;;;;;4955553;28;20212;-94
2023/06/24 01:56:02;;;;;;;8.43;7.20;;;14.40;99.90;;;;;;4949428;28;20189;-94
2023/06/24 01:58:30;;;;;;;9.95;7.25;;;14.40;99.90;;;;;;4935708;29;20194;-94
2023/06/24 02:00:57;;;;;;;9.27;6.93;;;14.40;99.90;;;;;;4937206;29;20528;-96
2023/06/24 02:03:24;;;;;;;8.82;7.18;;;14.40;99.90;;;;;;4969010;28;20186;-95
2023/06/24 02:05:51;;;;;;;11.68;7.82;;;14.30;99.90;;;;;;4953067;28;20605;-94
2023/06/24 02:08:20;;;;;;;10.55;7.68;;;14.20;99.90;;;;;;4936767;29;20648;-93
2023/06/24 02:10:47;;;;;;;8.35;7.55;;;14.20;99.90;;;;;;4937210;29;20706;-95
2023/06/24 02:13:13;;;;;;;10.23;7.90;;;14.20;99.90;;;;;;4937482;29;20209;-95
2023/06/24 02:15:40;;;;;;;9.70;7.90;;;14.20;99.90;;;;;;4936194;29;20226;-95
2023/06/24 02:18:09;;;;;;;12.65;7.50;;;14.20;99.90;;;;;;4937029;29;20182;-94
2023/06/24 02:20:35;;;;;;;10.77;8.23;;;14.20;99.90;;;;;;4937097;29;20189;-96
2023/06/24 02:23:04;;;;;;;10.45;7.75;;;14.10;99.90;;;;;;4935488;29;20194;-95
2023/06/24 02:25:31;;;;;;;10.90;7.80;;;14.20;99.90;;;;;;4937133;29;20186;-94
2023/06/24 02:27:58;;;;;;;12.65;8.45;;;14.10;99.90;;;;;;4936726;28;20190;-94
2023/06/24 02:30:24;;;;;;;12.70;7.63;;;14.10;99.90;;;;;;4936852;29;20193;-94
2023/06/24 02:32:51;;;;;;;14.30;8.40;;;14.10;99.90;;;;;;4936832;29;20189;-94
2023/06/24 02:35:16;;;;;;;13.32;9.23;;;14.10;99.90;;;;;;4937341;29;20551;-95
2023/06/24 02:37:43;;;;;;;9.50;8.23;;;14.10;99.90;;;;;;4936262;29;20186;-95
2023/06/24 02:40:10;;;;;;;15.48;8.25;;;14.10;99.90;;;;;;4953005;28;20225;-96
2023/06/24 02:42:36;;;;;;;11.23;8.65;;;14.10;99.90;;;;;;4952906;28;20283;-94
2023/06/24 02:45:03;;;;;;;13.20;8.18;;;14.10;99.90;;;;;;4952090;28;20194;-96
2023/06/24 02:47:30;;;;;;;10.52;8.82;;;14.10;99.90;;;;;;4968671;28;20276;-96
2023/06/24 02:49:57;;;;;;;22.00;8.77;;;14.10;99.90;;;;;;4936101;29;20567;-95
2023/06/24 02:52:23;;;;;;;16.65;8.50;;;14.00;99.90;;;;;;4949246;29;20316;-95
2023/06/24 02:54:49;;;;;;;9.68;8.48;;;13.90;99.90;;;;;;4955783;28;20643;-95
2023/06/24 02:57:16;;;;;;;10.82;8.15;;;13.90;99.90;;;;;;4955727;29;20185;-96
2023/06/24 02:59:42;;;;;;;11.30;8.43;;;13.90;99.90;;;;;;4953265;28;20231;-96
2023/06/24 03:02:08;;;;;;;9.48;7.82;;;14.00;99.90;;;;;;4956851;29;20216;-96
2023/06/24 03:04:35;;;;;;;11.38;8.02;;;14.00;99.90;;;;;;4958447;28;20190;-94
2023/06/24 03:07:02;;;;;;;14.95;8.40;;;13.90;99.90;;;;;;4960746;28;20268;-96
2023/06/24 03:09:28;;;;;;;10.13;8.82;;;14.00;99.90;;;;;;4965091;28;20217;-96
2023/06/24 03:11:53;;;;;;;11.70;8.80;;;14.00;99.90;;;;;;4971503;28;20232;-95
2023/06/24 03:14:19;;;;;;;11.05;8.60;;;14.00;99.90;;;;;;4970748;28;20189;-96
2023/06/24 03:16:45;;;;;;;11.32;9.32;;;14.00;99.90;;;;;;4956031;28;20205;-96
2023/06/24 03:19:11;;;;;;;10.82;9.65;;;14.00;99.90;;;;;;4954677;29;20193;-95
2023/06/24 03:21:36;;;;;;;11.05;8.88;;;14.00;99.90;;;;;;4955231;28;20196;-94
2023/06/24 03:24:02;;;;;;;12.45;9.18;;;14.00;99.90;;;;;;4955184;29;20196;-94
2023/06/24 03:26:33;;;;;;;13.07;10.45;;;14.00;99.90;;;;;;4987535;28;20176;-95
2023/06/24 03:28:58;;;;;;;14.98;9.40;;;14.00;99.90;;;;;;4986895;28;20279;-94
2023/06/24 03:31:24;;;;;;;10.27;9.20;;;14.00;99.90;;;;;;4955482;28;20177;-95
2023/06/24 03:33:50;;;;;;;13.18;10.30;;;14.00;99.90;;;;;;4955307;29;20249;-94
2023/06/24 03:36:15;;;;;;;10.18;9.07;;;14.00;99.90;;;;;;4987007;28;20189;-94
2023/06/24 03:38:41;;;;;;;11.82;9.77;;;14.00;99.90;;;;;;4954500;29;20268;-94
2023/06/24 03:41:07;;;;;;;12.73;9.30;;;14.00;99.90;;;;;;4955377;29;20209;-95
2023/06/24 03:43:32;;;;;;;11.70;9.52;;;14.10;99.90;;;;;;4954884;29;20264;-94
2023/06/24 03:45:59;;;;;;;10.95;9.80;;;14.10;99.90;;;;;;4954376;28;20623;-95
2023/06/24 03:48:26;;;;;;;13.30;10.02;;;14.10;99.90;;;;;;4953420;28;20213;-96
2023/06/24 03:50:51;;;;;;;15.45;9.30;;;14.10;99.90;;;;;;4954328;29;20189;-96
2023/06/24 03:53:17;;;;;;;9.77;8.77;;;14.10;99.90;;;;;;4955454;28;20507;-96
2023/06/24 03:55:43;;;;;;;10.63;9.52;;;14.10;99.90;;;;;;4955003;28;20636;-96
2023/06/24 03:58:09;;;;;;;11.20;9.18;;;14.10;99.90;;;;;;4955306;28;20623;-96
2023/06/24 04:00:36;;;;;;;11.25;9.75;;;14.10;99.90;;;;;;4954228;28;20228;-96
2023/06/24 04:03:01;;;;;;;12.85;9.50;;;14.10;99.90;;;;;;4954712;28;20233;-95
2023/06/24 04:05:27;;;;;;;12.85;9.90;;;14.10;99.90;;;;;;4955069;28;20185;-96
2023/06/24 04:07:53;;;;;;;12.20;10.40;;;14.10;99.90;;;;;;4954465;28;20185;-94
2023/06/24 04:10:19;;;;;;;11.15;9.77;;;14.10;99.90;;;;;;4986369;28;20248;-93
2023/06/24 04:12:48;;;;;;;11.70;10.50;;;14.20;99.90;;;;;;4986967;28;20181;-93
2023/06/24 04:15:13;;;;;;;17.02;9.88;;;14.20;99.90;;;;;;4985699;28;20283;-96
2023/06/24 04:17:39;;;;;;;12.18;10.43;;;14.20;99.90;;;;;;4954043;29;20358;-95
2023/06/24 04:20:08;;;;;;;12.20;10.52;;;14.20;99.90;;;;;;4953966;29;20241;-96
2023/06/24 04:22:38;;;;;;;14.20;10.30;;;14.30;99.90;;;;;;4987978;28;20181;-96
2023/06/24 04:25:08;;;;;;;12.90;9.93;;;14.30;99.90;;;;;;4987837;28;20185;-96
2023/06/24 04:27:34;;;;;;;12.48;10.32;;;14.30;99.90;;;;;;4955429;28;20174;-96
2023/06/24 04:30:01;;;;;;;13.68;10.73;;;14.30;99.90;;;;;;4986715;28;20245;-95
2023/06/24 04:32:26;;;;;;;12.00;10.60;;;14.30;99.90;;;;;;4954824;29;20181;-95
2023/06/24 04:34:53;;;;;;;10.77;9.68;;;14.40;99.90;;;;;;4955321;29;20203;-95
2023/06/24 04:37:19;;;;;;;17.77;11.85;;;14.50;99.90;;;;;;4970572;28;20297;-96
2023/06/24 04:39:45;;;;;;;15.07;11.35;;;14.50;99.90;;;;;;4959250;28;20284;-96
2023/06/24 04:42:11;;;;;;;16.90;10.27;;;14.60;99.90;;;;;;4991562;28;20181;-96
2023/06/24 04:44:37;;;;;;;14.23;11.07;;;14.80;99.90;;;;;;4942465;29;20200;-96
2023/06/24 04:47:03;;;;;;;12.88;10.45;;;14.90;99.90;;;;;;4989750;28;20548;-95
2023/06/24 04:49:29;;;;;;;13.65;9.98;;;15.10;99.90;;;;;;4990406;28;20223;-95
2023/06/24 04:51:54;;;;;;;11.73;9.95;;;15.20;99.90;;;;;;4974684;28;20225;-95
2023/06/24 04:54:20;;;;;;;12.65;10.32;;;15.40;99.90;;;;;;4974540;28;20290;-95
2023/06/24 04:56:48;;;;;;;13.88;10.02;;;15.50;99.90;;;;;;4975918;28;20177;-96
2023/06/24 04:59:14;;;;;;;14.25;11.00;;;15.70;99.90;;;;;;4958286;28;20208;-95
2023/06/24 05:01:40;;;;;;;10.90;9.18;;;15.70;99.90;;;;;;4958472;28;20609;-95
2023/06/24 05:04:05;;;;;;;13.20;9.88;;;15.80;99.90;;;;;;4958528;29;20188;-95
2023/06/24 05:06:31;;;;;;;11.88;10.10;;;15.90;99.90;;;;;;4957803;29;20635;-95
2023/06/24 05:08:57;;;;;;;12.10;9.85;;;15.90;99.90;;;;;;4972577;28;20595;-94
2023/06/24 05:11:22;;;;;;;15.05;9.82;;;15.90;99.90;;;;;;4957412;29;20253;-94
2023/06/24 05:13:48;;;;;;;12.70;9.98;;;15.90;99.90;;;;;;4957411;29;20612;-94
2023/06/24 05:16:14;;;;;;;11.93;9.80;;;15.90;99.90;;;;;;4954714;28;20188;-93
2023/06/24 05:18:39;;;;;;;12.93;9.63;;;16.00;99.90;;;;;;4990471;28;20190;-94
2023/06/24 05:21:05;;;;;;;11.35;9.88;;;16.00;99.90;;;;;;4958416;29;20219;-95
2023/06/24 05:23:31;;;;;;;12.30;10.07;;;16.00;99.90;;;;;;4957487;29;20200;-94
2023/06/24 05:26:02;;;;;;;11.02;9.85;;;16.10;99.90;;;;;;4972240;28;20628;-93
2023/06/24 05:28:28;;;;;;;14.82;10.45;;;16.10;99.90;;;;;;4973955;28;20255;-94
2023/06/24 05:31:05;;;;;;;16.73;10.65;;;16.10;99.90;;;;;;4959097;29;20275;-94
2023/06/24 05:33:31;;;;;;;12.68;9.75;;;16.20;99.90;;;;;;4974125;28;20614;-92
2023/06/24 05:35:57;;;;;;;13.82;10.35;;;16.30;99.90;;;;;;4957777;29;20185;-93
2023/06/24 05:38:23;;;;;;;16.20;10.65;;;16.30;99.90;;;;;;4958285;29;20185;-93
2023/06/24 05:40:48;;;;;;;11.57;9.30;;;16.30;99.90;;;;;;4957973;29;20221;-91
2023/06/24 05:43:14;;;;;;;14.77;10.35;;;16.40;99.90;;;;;;4973939;28;20244;-92
2023/06/24 05:45:40;;;;;;;14.10;9.60;;;16.40;99.90;;;;;;4957485;29;20530;-92
2023/06/24 05:48:06;;;;;;;16.95;10.32;;;16.40;99.90;;;;;;4956285;29;20576;-90
2023/06/24 05:50:31;;;;;;;16.52;10.48;;;16.40;99.90;;;;;;4956675;28;20213;-90
2023/06/24 05:52:58;;;;;;;13.93;10.10;;;16.50;99.90;;;;;;4973617;28;20225;-90
2023/06/24 05:55:27;;;;;;;15.68;10.30;;;16.50;99.90;;;;;;4957527;28;20231;-91
2023/06/24 05:57:52;;;;;;;14.90;10.70;;;16.50;99.90;;;;;;4957802;29;20177;-91
2023/06/24 06:00:18;;;;;;;14.48;10.98;;;16.60;99.90;;;;;;4957744;29;20236;-91
2023/06/24 06:02:44;;;;;;;13.80;10.55;;;16.60;99.90;;;;;;4956605;29;20213;-89
2023/06/24 06:05:13;;;;;;;13.88;10.43;;;16.60;99.90;;;;;;4973366;28;20205;-89
2023/06/24 06:07:39;;;;;;;13.30;10.63;;;16.70;99.90;;;;;;4973745;28;20236;-89
2023/06/24 06:10:07;;;;;;;18.38;10.32;;;16.70;99.90;;;;;;4957238;29;20217;-89
2023/06/24 06:12:33;;;;;;;12.80;9.70;;;16.70;99.90;;;;;;4957955;28;20186;-88
2023/06/24 06:14:59;;;;;;;15.88;10.15;;;16.80;99.90;;;;;;4972965;28;20236;-89
2023/06/24 06:17:25;;;;;;;13.73;10.63;;;16.80;99.90;;;;;;4973043;28;20185;-89
2023/06/24 06:19:51;;;;;;;16.70;10.52;;;16.90;99.90;;;;;;4957096;29;20252;-89
2023/06/24 06:22:17;;;;;;;13.48;9.65;;;16.90;99.90;;;;;;4957157;29;20173;-89
2023/06/24 06:24:43;;;;;;;15.77;11.02;;;16.80;99.90;;;;;;4956889;29;20651;-88
2023/06/24 06:27:13;;;;;;;14.40;10.52;;;16.90;99.90;;;;;;4956834;29;20189;-89
2023/06/24 06:29:38;;;;;;;14.93;10.60;;;16.90;99.90;;;;;;4972802;28;20224;-88
2023/06/24 06:32:04;;;;;;;15.00;10.48;;;16.90;99.90;;;;;;4972610;28;20690;-88
2023/06/24 06:34:30;;;;;;;16.77;11.52;;;16.90;99.90;;;;;;4957928;28;20627;-88
2023/06/24 06:36:56;;;;;;;17.17;11.25;;;17.00;99.90;;;;;;4958751;28;20190;-87
2023/06/24 06:39:21;;;;;;;13.43;10.73;;;17.00;99.90;;;;;;4946165;29;20216;-87
2023/06/24 06:41:47;;;;;;;12.95;10.80;;;17.10;99.90;;;;;;4958035;28;20174;-89
2023/06/24 06:44:16;;;;;;;16.58;10.13;;;17.20;99.90;;;;;;4988849;28;20219;-87
2023/06/24 06:46:41;;;;;;;14.45;10.20;;;17.20;99.90;;;;;;4964066;28;20621;-88
2023/06/24 06:49:07;;;;;;;15.93;9.27;;;17.20;99.90;;;;;;4975807;28;20311;-88
2023/06/24 06:51:34;;;;;;;13.45;9.82;;;17.30;99.90;;;;;;4967493;28;20256;-87
2023/06/24 06:54:00;;;;;;;16.98;10.82;;;17.60;99.90;;;;;;4954487;29;20279;-86
2023/06/24 06:56:26;;;;;;;11.77;9.32;;;17.60;99.90;;;;;;4956048;29;20665;-88
2023/06/24 06:58:52;;;;;;;15.80;10.70;;;17.70;99.90;;;;;;4971940;28;20179;-87
2023/06/24 07:01:18;;;;;;;13.77;9.77;;;17.70;99.90;;;;;;4955546;28;20232;-87
2023/06/24 07:03:44;;;;;;;12.25;10.23;;;17.80;99.90;;;;;;4956169;28;20284;-87
2023/06/24 07:06:12;;;;;;;12.75;10.32;;;17.70;99.90;;;;;;4988612;28;20521;-87
2023/06/24 07:08:38;;;;;;;12.38;10.23;;;17.70;99.90;;;;;;4957116;29;20201;-87
2023/06/24 07:11:03;;;;;;;12.88;9.60;;;17.80;99.90;;;;;;4971499;28;20193;-88
2023/06/24 07:13:29;;;;;;;15.60;9.25;;;18.00;99.90;;;;;;4937809;29;20522;-87
2023/06/24 07:15:58;;;;;;;11.93;8.35;;;18.10;99.90;;;;;;4986661;28;20185;-86
2023/06/24 07:18:24;;;;;;;13.05;9.25;;;18.30;99.90;;;;;;4955782;28;20204;-87
2023/06/24 07:20:49;;;;;;;11.57;9.38;;;18.50;99.90;;;;;;4948329;28;20256;-86
2023/06/24 07:23:15;;;;;;;8.65;7.68;;;18.60;99.90;;;;;;4955321;29;20177;-87
2023/06/24 07:25:42;;;;;;;9.02;7.45;;;18.60;99.90;;;;;;4954176;29;20189;-88
2023/06/24 07:28:07;;;;;;;12.85;8.60;;;18.70;99.90;;;;;;4956903;29;20169;-88
2023/06/24 07:30:33;;;;;;;8.90;7.97;;;19.00;99.90;;;;;;4955454;28;20199;-86
2023/06/24 07:33:05;;;;;;;10.20;7.13;;;19.20;99.90;;;;;;4967981;28;20201;-87
2023/06/24 07:35:32;;;;;;;8.57;7.68;;;19.20;99.90;;;;;;4954999;29;20196;-87
2023/06/24 07:37:59;;;;;;;7.70;6.72;;;19.10;99.90;;;;;;4955446;29;20512;-88
2023/06/24 07:40:25;;;;;;;7.53;6.22;;;19.20;99.90;;;;;;4954908;29;20181;-87
2023/06/24 07:42:50;;;;;;;8.02;6.60;;;19.40;99.90;;;;;;4954997;29;20193;-88
2023/06/24 07:45:21;;;;;;;7.13;6.00;;;19.50;99.90;;;;;;4955606;29;20177;-88
2023/06/24 07:47:47;;;;;;;8.85;6.00;;;19.50;99.90;;;;;;4970167;28;20196;-87
2023/06/24 07:50:13;;;;;;;6.63;5.40;;;19.40;99.90;;;;;;4971475;28;20220;-87
2023/06/24 07:52:39;;;;;;;7.45;5.07;;;19.30;99.90;;;;;;4939493;29;20237;-90
2023/06/24 07:55:08;;;;;;;6.60;5.13;;;19.30;99.90;;;;;;4971836;28;20189;-90
2023/06/24 07:57:33;;;;;;;6.40;5.30;;;19.20;99.90;;;;;;4955126;29;20220;-89
2023/06/24 07:59:59;;;;;;;5.88;5.20;;;19.30;99.90;;;;;;4971264;28;20205;-89
2023/06/24 08:02:26;;;;;;;8.35;5.22;;;19.50;99.90;;;;;;4971342;28;20228;-90
2023/06/24 08:04:52;;;;;;;11.73;5.82;;;19.70;99.90;;;;;;4971597;28;20271;-88
2023/06/24 08:07:18;;;;;;;7.20;5.60;;;20.00;99.90;;;;;;4971376;28;20184;-87
2023/06/24 08:09:44;;;;;;;5.50;4.55;;;20.00;99.90;;;;;;4971202;28;20221;-87
2023/06/24 08:12:10;;;;;;;6.70;4.90;;;20.10;99.90;;;;;;4971595;28;20187;-89
2023/06/24 08:14:42;;;;;;;6.43;5.32;;;20.10;99.90;;;;;;4960570;28;20228;-89
2023/06/24 08:17:08;;;;;;;8.60;5.65;;;20.20;99.90;;;;;;4974501;28;20177;-87
2023/06/24 08:19:33;;;;;;;7.18;5.20;;;20.40;99.90;;;;;;4955490;29;20190;-88
2023/06/24 08:21:59;;;;;;;8.30;5.57;;;20.50;99.90;;;;;;4956111;29;20260;-87
2023/06/24 08:24:25;;;;;;;8.30;4.95;;;20.60;99.90;;;;;;4955978;29;20621;-88
2023/06/24 08:26:50;;;;;;;6.85;4.28;;;20.60;99.90;;;;;;4955873;29;20749;-88
2023/06/24 08:29:16;;;;;;;8.10;4.07;;;20.80;99.90;;;;;;4958815;29;20595;-88
2023/06/24 08:31:41;;;;;;;5.22;4.47;;;20.90;99.90;;;;;;4991233;28;20177;-88
2023/06/24 08:34:07;;;;;;;5.60;4.22;;;20.90;99.90;;;;;;4959100;29;20185;-89
2023/06/24 08:36:37;;;;;;;6.50;4.15;;;20.90;99.90;;;;;;4959306;29;20197;-87
2023/06/24 08:39:03;;;;;;;5.18;4.40;;;21.00;99.90;;;;;;4958740;29;20241;-90
2023/06/24 08:41:28;;;;;;;11.90;5.50;;;21.10;99.90;;;;;;4960125;29;20232;-88
2023/06/24 08:43:54;;;;;;;10.90;5.00;;;21.00;99.90;;;;;;4975210;28;20181;-89
2023/06/24 08:46:25;;;;;;;7.53;4.30;;;21.00;99.90;;;;;;4974744;28;20616;-89
2023/06/24 08:49:12;;;;;;;6.82;4.68;;;21.10;99.90;;;;;;4958925;29;20212;-89
2023/06/24 08:51:44;;;;;;;6.57;4.68;;;21.20;99.90;;;;;;4958525;28;20228;-91
2023/06/24 08:54:10;;;;;;;5.18;4.18;;;21.30;99.90;;;;;;4944606;29;20265;-89
2023/06/24 08:56:38;;;;;;;8.80;3.85;;;21.40;99.90;;;;;;4950232;29;20239;-90
2023/06/24 08:59:06;;;;;;;6.80;4.35;;;21.50;99.90;;;;;;4955471;29;20186;-90
2023/06/24 09:01:31;;;;;;;6.22;4.55;;;21.60;99.90;;;;;;4985840;28;20181;-90
2023/06/24 09:03:57;;;;;;;5.40;4.82;;;21.60;99.90;;;;;;4958328;29;20347;-89
2023/06/24 09:06:31;;;;;;;6.28;3.75;;;21.60;99.90;;;;;;4991256;28;20192;-91
2023/06/24 09:08:57;;;;;;;4.90;3.35;;;21.60;99.90;;;;;;4958371;28;20212;-88
2023/06/24 09:11:28;;;;;;;4.88;4.22;;;21.60;99.90;;;;;;4957362;28;20189;-89
2023/06/24 09:14:00;;;;;;;5.45;3.78;;;21.70;99.90;;;;;;4955693;28;20530;-88
2023/06/24 09:16:27;;;;;;;4.82;3.78;;;21.80;99.90;;;;;;4958003;28;20292;-91
2023/06/24 09:18:53;;;;;;;5.60;3.95;;;21.80;99.90;;;;;;4974611;28;20181;-89
2023/06/24 09:21:24;;;;;;;7.50;4.25;;;21.90;99.90;;;;;;4974652;28;20268;-89
2023/06/24 09:23:58;;;;;;;5.43;3.85;;;22.00;99.90;;;;;;4973660;28;20233;-88
2023/06/24 09:26:30;;;;;;;7.22;4.03;;;22.20;99.90;;;;;;4973569;28;20540;-91
2023/06/24 09:28:57;;;;;;;7.15;4.20;;;22.10;99.90;;;;;;4959363;28;20682;-91
2023/06/24 09:31:24;;;;;;;4.40;3.90;;;22.10;99.90;;;;;;4957931;28;20184;-89
2023/06/24 09:33:49;;;;;;;10.93;4.10;;;22.10;99.90;;;;;;4974215;28;20240;-91
2023/06/24 09:36:24;;;;;;;17.27;4.30;;;22.10;99.90;;;;;;4974112;28;20185;-90
2023/06/24 09:38:50;;;;;;;5.47;3.80;;;22.30;99.90;;;;;;4974422;28;20819;-90
2023/06/24 09:41:16;;;;;;;7.05;3.63;;;22.40;99.90;;;;;;4973978;28;20181;-90
2023/06/24 09:43:47;;;;;;;6.95;3.63;;;22.40;99.90;;;;;;4973959;28;20280;-91
2023/06/24 09:46:14;;;;;;;4.40;3.25;;;22.50;99.90;;;;;;4958266;28;20659;-89
2023/06/24 09:48:40;;;;;;;6.15;3.67;;;22.50;99.90;;;;;;4957653;28;20723;-89
2023/06/24 09:51:06;;;;;;;7.20;3.53;;;22.60;99.90;;;;;;4973787;28;20277;-90
2023/06/24 09:53:34;;;;;;;4.78;3.28;;;22.80;99.90;;;;;;4958925;28;20220;-90
2023/06/24 09:56:09;;;;;;;6.00;3.45;;;22.80;99.90;;;;;;4958835;28;20236;-88
2023/06/24 09:58:36;;;;;;;4.70;3.50;;;22.80;99.90;;;;;;4989961;28;20654;-91
2023/06/24 10:01:04;;;;;;;6.50;3.58;;;22.90;99.90;;;;;;4957784;29;20177;-90
2023/06/24 10:03:33;;;;;;;9.05;3.35;;;23.00;99.90;;;;;;4957556;28;20625;-91
2023/06/24 10:06:01;;;;;;;7.80;3.30;;;23.10;99.90;;;;;;4957748;29;20188;-91
2023/06/24 10:08:28;;;;;;;7.05;3.25;;;23.10;99.90;;;;;;4957470;29;20193;-90
2023/06/24 10:10:54;;;;;;;3.60;3.20;;;23.20;99.90;;;;;;4973521;28;20189;-90
2023/06/24 10:13:20;;;;;;;7.32;3.60;;;23.20;99.90;;;;;;4953404;29;20617;-89
2023/06/24 10:15:46;;;;;;;10.43;3.65;;;23.30;99.90;;;;;;4972801;28;20251;-88
2023/06/24 10:18:30;;;;;;;5.22;3.80;;;23.30;99.90;;;;;;4956483;29;20196;-88
2023/06/24 10:20:57;;;;;;;4.15;3.65;;;23.30;99.90;;;;;;4989320;28;20256;-90
2023/06/24 10:23:23;;;;;;;5.30;3.47;;;23.30;99.90;;;;;;4957078;29;20592;-88
2023/06/24 10:25:49;;;;;;;4.25;3.70;;;23.30;99.90;;;;;;4938853;29;20189;-90
2023/06/24 10:28:14;;;;;;;7.25;3.90;;;23.40;99.90;;;;;;4954720;29;20576;-89
2023/06/24 10:30:54;;;;;;;6.53;3.70;;;23.40;99.90;;;;;;4956391;29;20280;-89
2023/06/24 10:33:19;;;;;;;4.57;3.70;;;23.50;99.90;;;;;;4968332;28;20643;-90
2023/06/24 10:35:45;;;;;;;5.32;3.55;;;23.70;99.90;;;;;;4989501;28;20197;-91
2023/06/24 10:38:11;;;;;;;5.70;3.75;;;23.80;99.90;;;;;;4956923;29;20181;-89
2023/06/24 10:40:43;;;;;;;6.57;3.35;;;23.80;99.90;;;;;;4956436;29;20182;-88
2023/06/24 10:43:24;;;;;;;4.55;3.20;;;23.90;99.90;;;;;;4951315;28;20189;-88
2023/06/24 10:45:50;;;;;;;4.82;3.75;;;23.90;99.90;;;;;;4983601;28;20185;-91
2023/06/24 10:48:19;;;;;;;4.57;3.97;;;23.90;99.90;;;;;;4956397;29;20185;-89
2023/06/24 10:50:45;;;;;;;5.15;3.17;;;24.00;99.90;;;;;;4956846;29;20181;-88
2023/06/24 10:53:13;;;;;;;7.28;3.63;;;24.00;99.90;;;;;;4956021;29;20269;-91
2023/06/24 10:55:39;;;;;;;8.27;3.72;;;24.10;99.90;;;;;;4956478;29;20505;-89
2023/06/24 10:58:11;;;;;;;4.68;3.22;;;24.20;99.90;;;;;;4956678;29;20178;-88
2023/06/24 11:00:37;;;;;;;4.85;3.55;;;24.20;99.90;;;;;;4956290;29;20576;-90
2023/06/24 11:03:10;;;;;;;4.55;3.47;;;24.30;99.90;;;;;;4956094;29;20276;-89
2023/06/24 11:05:39;;;;;;;5.95;3.33;;;24.40;99.90;;;;;;4988735;28;20188;-89
2023/06/24 11:08:06;;;;;;;5.60;3.40;;;24.50;99.90;;;;;;4956433;28;20279;-89
2023/06/24 11:10:32;;;;;;;7.35;3.70;;;24.40;99.90;;;;;;4955677;28;20550;-89
2023/06/24 11:13:06;;;;;;;4.43;3.80;;;24.40;99.90;;;;;;4956248;28;20188;-89
2023/06/24 11:15:33;;;;;;;5.55;3.88;;;24.50;99.90;;;;;;4955903;28;20193;-87
2023/06/24 11:18:10;;;;;;;5.40;4.00;;;24.50;99.90;;;;;;4955789;28;20185;-89
2023/06/24 11:20:39;;;;;;;4.97;3.67;;;24.60;99.90;;;;;;4955807;28;20176;-89
2023/06/24 11:23:10;;;;;;;5.63;3.60;;;24.60;99.90;;;;;;4957125;28;20178;-88
2023/06/24 11:25:43;;;;;;;5.28;3.30;;;24.60;99.90;;;;;;4955841;28;20192;-89
2023/06/24 11:28:19;;;;;;;4.47;3.60;;;24.70;99.90;;;;;;4971955;28;20259;-88
2023/06/24 11:30:44;;;;;;;4.00;3.60;;;25.00;99.90;;;;;;4971704;28;20203;-87
2023/06/24 11:33:10;;;;;;;6.05;3.05;;;25.20;99.90;;;;;;4971186;28;20197;-87
2023/06/24 11:35:37;;;;;;;4.45;3.70;;;25.30;99.90;;;;;;4971816;28;20181;-89
2023/06/24 11:38:03;;;;;;;4.68;3.70;;;25.20;99.90;;;;;;4971871;28;20212;-89
2023/06/24 11:40:32;;;;;;;6.25;3.63;;;25.20;99.90;;;;;;4971683;28;20176;-89
2023/06/24 11:43:00;;;;;;;3.75;3.28;;;25.20;99.70;;;;;;4971075;28;20189;-87
2023/06/24 11:45:25;;;;;;;10.50;4.15;;;25.40;99.90;;;;;;4955346;28;20208;-87
2023/06/24 11:47:52;;;;;;;6.80;3.65;;;25.30;99.90;;;;;;4954600;28;20177;-86
2023/06/24 11:50:18;;;;;;;3.92;3.30;;;25.30;99.90;;;;;;4955011;29;20652;-86
2023/06/24 11:52:45;;;;;;;5.85;3.50;;;25.40;99.90;;;;;;4954895;28;20240;-86
2023/06/24 11:55:16;;;;;;;5.10;3.50;;;25.60;99.90;;;;;;4954965;28;20184;-88
2023/06/24 11:58:06;;;;;;;4.80;3.97;;;25.60;99.90;;;;;;4971507;28;20594;-86
2023/06/24 12:00:32;;;;;;;5.05;3.45;;;25.60;98.40;;;;;;4954524;28;20193;-86
2023/06/24 12:03:01;;;;;;;5.88;3.03;;;25.60;98.10;;;;;;4955840;28;20205;-87
2023/06/24 12:05:34;;;;;;;4.60;3.35;;;25.80;99.00;;;;;;4954935;29;20211;-88
2023/06/24 12:08:02;;;;;;;6.03;3.20;;;25.60;99.90;;;;;;4955417;29;20228;-88
2023/06/24 12:10:29;;;;;;;3.58;3.15;;;25.60;99.90;;;;;;4955143;29;20213;-88
2023/06/24 12:12:57;;;;;;;4.63;3.20;;;25.60;99.40;;;;;;4954697;28;20252;-88
2023/06/24 12:15:23;;;;;;;4.38;3.33;;;25.50;99.70;;;;;;4955400;29;20185;-86
2023/06/24 12:17:50;;;;;;;3.60;2.95;;;25.10;99.20;;;;;;4954403;29;20235;-87
2023/06/24 12:20:17;;;;;;;5.15;3.30;;;24.70;99.90;;;;;;4955861;29;20165;-86
2023/06/24 12:22:42;;;;;;;3.70;3.30;;;24.40;99.90;;;;;;4953778;29;20193;-86
2023/06/24 12:25:09;;;;;;;4.38;3.53;;;24.40;99.90;;;;;;4970613;28;20185;-89
2023/06/24 12:27:35;;;;;;;5.45;3.50;;;24.60;99.90;;;;;;4956013;28;20181;-86
2023/06/24 12:30:01;;;;;;;10.68;3.63;;;25.00;99.90;;;;;;4955855;29;20205;-86
2023/06/24 12:32:27;;;;;;;4.38;3.20;;;25.30;98.90;;;;;;4970404;28;20180;-87
2023/06/24 12:34:53;;;;;;;3.30;2.88;;;25.20;99.90;;;;;;4954999;29;20213;-87
2023/06/24 12:37:19;;;;;;;3.55;2.97;;;25.10;99.90;;;;;;4954340;29;20190;-85
2023/06/24 12:39:45;;;;;;;6.88;3.30;;;25.00;99.90;;;;;;4954273;29;20181;-85
2023/06/24 12:42:11;;;;;;;4.35;3.08;;;25.00;99.90;;;;;;4986823;28;20185;-86
2023/06/24 12:44:37;;;;;;;5.55;3.15;;;25.00;99.90;;;;;;4954254;29;20609;-85